Time;durP1;ratioP1;P1;durP2;ratioP2;P2;SDS_P1;SDS_P2;PMS_P1;PMS_P2;Temp;Humidity;BMP_temperature;BMP_pressure;BME280_temperature;BME280_humidity;BME280_pressure;Samples;Min_cycle;Max_cycle;Signal;HPM_P1;HPM_P2
2023/05/25 00:01:03;;;;;;;2.90;2.10;;;12.20;99.90;;;;;;5018140;28;20126;-81
2023/05/25 00:03:30;;;;;;;3.67;2.65;;;12.20;99.90;;;;;;5033627;28;20342;-77
2023/05/25 00:06:01;;;;;;;3.08;1.90;;;12.10;99.90;;;;;;5027440;28;20859;-78
2023/05/25 00:08:28;;;;;;;3.50;2.47;;;12.10;99.90;;;;;;5011676;28;20562;-78
2023/05/25 00:10:55;;;;;;;3.63;2.17;;;12.10;99.90;;;;;;5020511;28;20399;-77
2023/05/25 00:13:22;;;;;;;4.88;2.72;;;12.00;99.90;;;;;;5038524;28;20044;-77
2023/05/25 00:15:49;;;;;;;3.40;2.10;;;12.00;99.90;;;;;;5030865;28;20562;-78
2023/05/25 00:18:17;;;;;;;2.88;2.25;;;12.00;99.90;;;;;;5021297;28;20389;-78
2023/05/25 00:20:46;;;;;;;3.63;2.50;;;11.90;99.90;;;;;;5033113;28;20076;-78
2023/05/25 00:23:13;;;;;;;5.45;2.67;;;12.00;99.90;;;;;;5021416;28;20041;-78
2023/05/25 00:25:40;;;;;;;3.47;2.35;;;12.00;99.90;;;;;;5058233;28;20059;-78
2023/05/25 00:28:08;;;;;;;4.57;2.55;;;12.00;99.90;;;;;;5007442;28;20081;-78
2023/05/25 00:30:35;;;;;;;3.45;2.17;;;12.00;99.90;;;;;;5040641;28;20056;-78
2023/05/25 00:33:02;;;;;;;2.60;2.15;;;12.00;99.90;;;;;;5019737;28;20102;-78
2023/05/25 00:35:29;;;;;;;3.03;2.03;;;11.90;99.90;;;;;;5054260;28;20228;-78
2023/05/25 00:37:56;;;;;;;3.35;2.45;;;11.90;99.90;;;;;;5023541;28;20144;-78
2023/05/25 00:40:23;;;;;;;4.88;2.58;;;12.00;99.90;;;;;;5038539;28;20041;-78
2023/05/25 00:42:51;;;;;;;3.45;2.10;;;12.00;99.90;;;;;;5031159;28;20102;-78
2023/05/25 00:45:18;;;;;;;2.85;2.13;;;11.90;99.90;;;;;;5031030;28;20059;-78
2023/05/25 00:47:45;;;;;;;2.88;2.15;;;12.00;99.90;;;;;;5023450;28;20475;-79
2023/05/25 00:50:14;;;;;;;4.03;2.35;;;11.90;99.90;;;;;;5036270;28;20056;-78
2023/05/25 00:52:40;;;;;;;3.45;2.40;;;11.80;99.90;;;;;;5044062;28;20060;-78
2023/05/25 00:55:10;;;;;;;5.47;3.13;;;11.80;99.90;;;;;;5033230;28;20056;-78
2023/05/25 00:57:37;;;;;;;3.22;2.10;;;11.80;99.90;;;;;;5039220;28;20146;-78
2023/05/25 01:00:10;;;;;;;3.83;2.50;;;11.80;99.90;;;;;;5022232;28;20076;-79
2023/05/25 01:02:37;;;;;;;5.40;2.83;;;11.80;99.90;;;;;;5010258;28;20060;-78
2023/05/25 01:05:06;;;;;;;3.38;2.28;;;11.70;99.90;;;;;;5017470;28;20045;-78
2023/05/25 01:07:32;;;;;;;3.53;2.25;;;11.70;99.90;;;;;;5037544;28;20130;-78
2023/05/25 01:10:01;;;;;;;3.88;2.60;;;11.70;99.90;;;;;;5036834;28;20547;-78
2023/05/25 01:12:28;;;;;;;5.07;2.85;;;11.70;99.90;;;;;;5025591;28;20072;-79
2023/05/25 01:14:55;;;;;;;3.15;2.60;;;11.70;99.90;;;;;;5052333;28;20118;-79
2023/05/25 01:17:22;;;;;;;3.45;2.10;;;11.70;99.90;;;;;;5023006;28;20500;-79
2023/05/25 01:19:51;;;;;;;3.03;2.03;;;11.70;99.90;;;;;;5049558;28;20059;-78
2023/05/25 01:22:50;;;;;;;2.97;1.95;;;11.60;99.90;;;;;;5018659;28;20589;-78
2023/05/25 01:25:35;;;;;;;4.30;2.60;;;11.60;99.90;;;;;;5021326;28;20045;-78
2023/05/25 01:28:06;;;;;;;3.63;1.88;;;11.60;99.90;;;;;;5021887;28;20071;-78
2023/05/25 01:30:34;;;;;;;3.72;2.20;;;11.50;99.90;;;;;;5025579;28;20453;-77
2023/05/25 01:33:01;;;;;;;3.25;2.38;;;11.50;99.90;;;;;;5059629;28;20056;-78
2023/05/25 01:35:27;;;;;;;3.45;2.53;;;11.50;99.90;;;;;;5022163;28;20594;-77
2023/05/25 01:37:54;;;;;;;3.40;2.33;;;11.50;99.90;;;;;;5022580;28;20249;-77
2023/05/25 01:40:21;;;;;;;2.78;2.15;;;11.50;99.90;;;;;;5046181;28;20088;-77
2023/05/25 01:42:48;;;;;;;3.63;2.42;;;11.50;99.90;;;;;;5064387;28;20125;-77
2023/05/25 01:45:15;;;;;;;3.10;2.15;;;11.50;99.90;;;;;;5041251;28;20618;-77
2023/05/25 01:48:04;;;;;;;3.28;2.38;;;11.50;99.90;;;;;;5047530;28;20040;-77
2023/05/25 01:51:10;;;;;;;4.10;2.65;;;11.50;99.90;;;;;;5035477;28;20053;-78
2023/05/25 01:53:41;;;;;;;3.25;2.72;;;11.40;99.90;;;;;;4985608;28;20470;-77
2023/05/25 01:56:10;;;;;;;3.65;2.40;;;11.40;99.90;;;;;;5024960;28;20049;-77
2023/05/25 01:58:46;;;;;;;4.15;2.70;;;11.50;99.90;;;;;;5016187;28;20045;-78
2023/05/25 02:01:13;;;;;;;3.95;2.97;;;11.50;99.90;;;;;;5051086;28;20064;-78
2023/05/25 02:03:40;;;;;;;2.85;2.55;;;11.50;99.90;;;;;;5034985;28;20506;-78
2023/05/25 02:06:07;;;;;;;4.18;2.97;;;11.50;99.90;;;;;;5029765;28;20053;-78
2023/05/25 02:08:34;;;;;;;6.55;2.78;;;11.50;99.90;;;;;;5027523;28;20045;-78
2023/05/25 02:11:02;;;;;;;3.92;2.58;;;11.50;99.90;;;;;;5038796;28;20124;-78
2023/05/25 02:13:29;;;;;;;4.10;2.83;;;11.40;99.90;;;;;;5026174;28;20473;-76
2023/05/25 02:15:55;;;;;;;3.67;2.85;;;11.40;99.90;;;;;;5044393;28;20052;-77
2023/05/25 02:18:22;;;;;;;3.63;2.88;;;11.40;99.90;;;;;;5052943;28;20526;-77
2023/05/25 02:20:50;;;;;;;2.83;2.10;;;11.50;99.90;;;;;;5022471;28;20052;-77
2023/05/25 02:23:17;;;;;;;2.60;2.28;;;11.50;99.90;;;;;;5014377;28;20474;-78
2023/05/25 02:25:45;;;;;;;3.80;2.60;;;11.50;99.90;;;;;;5033277;28;20051;-77
2023/05/25 02:28:13;;;;;;;2.90;2.08;;;11.60;99.90;;;;;;5041805;28;20052;-77
2023/05/25 02:30:39;;;;;;;3.03;2.30;;;11.60;99.90;;;;;;5027921;28;20041;-77
2023/05/25 02:33:06;;;;;;;3.10;2.20;;;11.60;99.90;;;;;;5028146;28;20531;-78
2023/05/25 02:35:33;;;;;;;3.08;2.40;;;11.70;99.90;;;;;;5062520;28;20037;-77
2023/05/25 02:38:00;;;;;;;2.95;2.10;;;11.70;99.90;;;;;;5062955;28;20136;-77
2023/05/25 02:40:27;;;;;;;3.10;2.38;;;11.70;99.90;;;;;;5029741;28;20063;-78
2023/05/25 02:42:54;;;;;;;3.08;2.08;;;11.70;99.90;;;;;;5011440;28;20131;-77
2023/05/25 02:45:21;;;;;;;2.78;2.22;;;11.70;99.90;;;;;;5039610;28;20129;-77
2023/05/25 02:47:48;;;;;;;3.55;2.35;;;11.70;99.90;;;;;;5032229;28;20045;-77
2023/05/25 02:50:14;;;;;;;3.60;2.30;;;11.80;99.90;;;;;;5025182;28;20131;-78
2023/05/25 02:52:42;;;;;;;3.17;2.38;;;11.80;99.90;;;;;;5045507;28;20480;-78
2023/05/25 02:55:09;;;;;;;3.58;1.98;;;11.90;99.90;;;;;;5044096;28;20044;-78
2023/05/25 02:57:37;;;;;;;3.72;1.98;;;11.90;99.90;;;;;;5046622;28;20097;-78
2023/05/25 03:00:11;;;;;;;3.28;2.50;;;12.00;99.90;;;;;;5029848;28;20084;-78
2023/05/25 03:02:37;;;;;;;4.28;2.28;;;12.10;99.90;;;;;;5044769;28;20055;-78
2023/05/25 03:05:06;;;;;;;3.80;2.65;;;12.10;99.90;;;;;;5025235;28;20053;-77
2023/05/25 03:07:33;;;;;;;2.83;2.53;;;12.20;99.90;;;;;;5040124;28;20049;-77
2023/05/25 03:10:00;;;;;;;3.00;2.70;;;12.20;99.90;;;;;;5043611;28;20082;-78
2023/05/25 03:12:26;;;;;;;3.67;2.63;;;12.30;99.90;;;;;;5038969;28;20049;-77
2023/05/25 03:14:53;;;;;;;3.05;2.38;;;12.30;99.90;;;;;;5044255;28;20499;-77
2023/05/25 03:17:20;;;;;;;4.00;2.60;;;12.30;99.90;;;;;;5020042;28;20053;-78
2023/05/25 03:19:47;;;;;;;3.70;2.55;;;12.30;99.90;;;;;;5022595;28;20142;-77
2023/05/25 03:22:14;;;;;;;3.88;2.95;;;12.30;99.90;;;;;;5045534;28;20131;-78
2023/05/25 03:24:41;;;;;;;3.67;2.58;;;12.30;99.90;;;;;;5022639;28;20041;-78
2023/05/25 03:27:08;;;;;;;3.70;2.70;;;12.40;99.90;;;;;;5038802;28;20052;-77
2023/05/25 03:29:35;;;;;;;3.22;2.78;;;12.40;99.90;;;;;;5039065;28;20450;-78
2023/05/25 03:32:02;;;;;;;3.90;2.92;;;12.40;99.90;;;;;;5040120;28;20048;-78
2023/05/25 03:34:29;;;;;;;3.80;2.53;;;12.40;99.90;;;;;;5054885;28;20079;-78
2023/05/25 03:36:56;;;;;;;4.00;2.95;;;12.50;99.90;;;;;;5029429;28;20099;-78
2023/05/25 03:39:23;;;;;;;2.70;2.25;;;12.50;99.90;;;;;;5027392;28;20084;-78
2023/05/25 03:41:50;;;;;;;3.15;2.22;;;12.60;99.90;;;;;;5027059;28;20414;-78
2023/05/25 03:44:17;;;;;;;4.05;2.40;;;12.60;99.90;;;;;;5054277;28;20114;-78
2023/05/25 03:46:44;;;;;;;3.83;2.47;;;12.70;99.90;;;;;;5063497;28;20048;-77
2023/05/25 03:49:12;;;;;;;3.95;2.40;;;12.70;99.90;;;;;;5061334;28;20055;-77
2023/05/25 03:51:40;;;;;;;3.97;3.10;;;12.70;99.90;;;;;;5046710;28;20061;-77
2023/05/25 03:54:07;;;;;;;3.50;2.25;;;12.70;99.90;;;;;;5043074;28;20072;-77
2023/05/25 03:56:34;;;;;;;3.45;2.50;;;12.70;99.90;;;;;;5040970;28;20052;-77
2023/05/25 03:59:01;;;;;;;3.53;2.17;;;12.80;99.90;;;;;;5038987;28;20094;-78
2023/05/25 04:01:28;;;;;;;3.70;2.63;;;12.80;99.90;;;;;;5025426;28;20577;-78
2023/05/25 04:03:56;;;;;;;4.30;2.80;;;12.70;99.90;;;;;;5059448;28;20049;-78
2023/05/25 04:06:24;;;;;;;5.03;2.95;;;12.70;99.90;;;;;;5061675;28;20135;-77
2023/05/25 04:08:51;;;;;;;3.22;2.47;;;12.80;99.90;;;;;;5028724;28;20045;-77
2023/05/25 04:11:18;;;;;;;4.72;2.83;;;12.80;99.90;;;;;;5026357;28;20376;-78
2023/05/25 04:13:45;;;;;;;3.17;2.22;;;12.80;99.90;;;;;;5024698;28;20437;-78
2023/05/25 04:16:12;;;;;;;4.03;2.63;;;12.80;99.90;;;;;;5042868;28;20103;-77
2023/05/25 04:18:39;;;;;;;4.63;2.92;;;12.80;99.90;;;;;;5012005;28;20103;-78
2023/05/25 04:21:06;;;;;;;4.57;3.00;;;12.80;99.90;;;;;;5042351;28;20100;-77
2023/05/25 04:23:33;;;;;;;5.20;3.63;;;12.90;99.90;;;;;;5033254;28;20075;-78
2023/05/25 04:26:00;;;;;;;3.33;2.22;;;12.90;99.90;;;;;;5061861;28;20150;-78
2023/05/25 04:28:27;;;;;;;3.00;2.63;;;12.90;99.90;;;;;;5044041;28;20048;-77
2023/05/25 04:30:55;;;;;;;3.55;2.58;;;12.90;99.90;;;;;;5061646;28;20545;-78
2023/05/25 04:33:23;;;;;;;3.88;2.90;;;12.90;99.90;;;;;;5059349;28;20243;-78
2023/05/25 04:35:50;;;;;;;3.15;2.55;;;12.90;99.90;;;;;;5027887;28;20055;-78
2023/05/25 04:38:17;;;;;;;3.58;2.72;;;13.00;99.90;;;;;;5022296;28;20045;-78
2023/05/25 04:40:45;;;;;;;4.25;2.80;;;13.00;99.90;;;;;;5043253;28;20059;-78
2023/05/25 04:43:12;;;;;;;3.55;2.45;;;13.00;99.90;;;;;;5040842;28;20072;-78
2023/05/25 04:45:39;;;;;;;6.28;2.53;;;13.00;99.90;;;;;;5024253;28;20469;-78
2023/05/25 04:48:06;;;;;;;5.47;2.88;;;13.10;99.90;;;;;;5038118;28;20133;-78
2023/05/25 04:50:33;;;;;;;3.83;2.47;;;13.10;99.90;;;;;;5020317;28;20052;-78
2023/05/25 04:53:00;;;;;;;4.70;2.67;;;13.10;99.90;;;;;;5025357;28;20041;-78
2023/05/25 04:55:27;;;;;;;4.15;2.60;;;13.20;99.90;;;;;;5017514;28;20424;-79
2023/05/25 04:57:54;;;;;;;3.25;2.70;;;13.20;99.90;;;;;;5033843;28;20684;-78
2023/05/25 05:00:21;;;;;;;3.33;2.55;;;13.30;99.90;;;;;;5023260;28;20049;-78
2023/05/25 05:02:48;;;;;;;4.72;2.88;;;13.30;99.90;;;;;;5030052;28;20136;-78
2023/05/25 05:05:16;;;;;;;4.55;2.75;;;13.40;99.90;;;;;;5016341;28;20052;-78
2023/05/25 05:07:43;;;;;;;3.60;2.75;;;13.40;99.90;;;;;;5048558;28;20049;-78
2023/05/25 05:10:10;;;;;;;3.47;2.75;;;13.40;99.90;;;;;;5060240;28;20056;-79
2023/05/25 05:12:37;;;;;;;5.18;2.90;;;13.50;99.90;;;;;;5053536;28;20064;-80
2023/05/25 05:15:04;;;;;;;5.22;2.58;;;13.60;99.90;;;;;;5042793;28;20155;-81
2023/05/25 05:17:32;;;;;;;3.83;2.65;;;13.60;99.90;;;;;;5051373;28;20431;-81
2023/05/25 05:19:58;;;;;;;3.75;3.05;;;13.60;99.90;;;;;;5032902;28;20075;-80
2023/05/25 05:22:26;;;;;;;4.18;2.90;;;13.70;99.90;;;;;;5030034;28;20048;-80
2023/05/25 05:24:53;;;;;;;4.32;2.70;;;13.70;99.90;;;;;;5039448;28;20049;-79
2023/05/25 05:27:20;;;;;;;3.80;3.00;;;13.70;99.90;;;;;;5011114;28;20053;-79
2023/05/25 05:29:47;;;;;;;3.70;2.50;;;13.70;99.90;;;;;;5052155;28;20636;-81
2023/05/25 05:32:14;;;;;;;4.38;3.20;;;13.70;99.90;;;;;;5024583;28;20060;-81
2023/05/25 05:34:41;;;;;;;4.60;2.83;;;13.70;99.90;;;;;;5027597;28;20076;-81
2023/05/25 05:37:10;;;;;;;3.58;2.75;;;13.70;99.90;;;;;;5046880;28;20051;-81
2023/05/25 05:39:37;;;;;;;4.50;2.83;;;13.80;99.90;;;;;;5043992;28;20053;-80
2023/05/25 05:42:05;;;;;;;3.70;2.90;;;13.80;99.90;;;;;;5026922;28;20686;-81
2023/05/25 05:44:31;;;;;;;4.57;3.17;;;13.90;99.90;;;;;;5041121;28;20563;-81
2023/05/25 05:46:59;;;;;;;3.65;3.10;;;13.90;99.90;;;;;;5006753;28;20073;-81
2023/05/25 05:49:27;;;;;;;4.45;3.35;;;14.00;99.90;;;;;;5016174;28;20370;-81
2023/05/25 05:51:54;;;;;;;4.55;3.33;;;14.10;99.90;;;;;;5028086;28;20052;-81
2023/05/25 05:54:22;;;;;;;4.07;2.70;;;14.10;99.90;;;;;;5040690;28;20057;-82
2023/05/25 05:56:49;;;;;;;4.40;2.90;;;14.20;99.90;;;;;;5017927;28;20053;-81
2023/05/25 05:59:16;;;;;;;3.55;2.65;;;14.30;99.90;;;;;;5022341;28;20123;-82
2023/05/25 06:01:44;;;;;;;3.90;2.88;;;14.30;99.90;;;;;;5031255;28;20447;-82
2023/05/25 06:04:11;;;;;;;3.33;2.50;;;14.30;99.90;;;;;;5024933;28;20143;-82
2023/05/25 06:06:39;;;;;;;5.00;3.30;;;14.40;99.90;;;;;;5016318;28;20803;-82
2023/05/25 06:09:06;;;;;;;5.55;4.00;;;14.50;99.90;;;;;;5037443;28;20138;-81
2023/05/25 06:11:35;;;;;;;5.07;3.28;;;14.50;99.90;;;;;;5020739;28;20412;-82
2023/05/25 06:14:03;;;;;;;4.18;2.90;;;14.50;99.90;;;;;;5016526;28;20696;-82
2023/05/25 06:16:30;;;;;;;5.43;2.67;;;14.50;99.90;;;;;;5034662;28;20496;-80
2023/05/25 06:18:57;;;;;;;3.65;2.30;;;14.70;99.90;;;;;;5031916;28;20624;-83
2023/05/25 06:21:24;;;;;;;2.92;2.55;;;14.70;99.90;;;;;;5029675;28;20403;-84
2023/05/25 06:23:50;;;;;;;3.58;2.28;;;14.70;99.90;;;;;;5037796;28;20045;-84
2023/05/25 06:26:17;;;;;;;5.25;2.92;;;14.70;99.90;;;;;;5046920;28;20617;-84
2023/05/25 06:28:46;;;;;;;3.78;2.33;;;14.60;99.90;;;;;;5043239;28;20049;-84
2023/05/25 06:31:13;;;;;;;4.15;2.83;;;14.60;99.90;;;;;;5051999;28;20048;-84
2023/05/25 06:33:40;;;;;;;3.80;2.60;;;14.60;99.90;;;;;;5047811;28;20118;-85
2023/05/25 06:36:07;;;;;;;4.63;2.70;;;14.60;99.90;;;;;;5044256;28;20068;-84
2023/05/25 06:38:34;;;;;;;3.85;1.90;;;14.60;99.90;;;;;;5042870;28;20048;-84
2023/05/25 06:41:03;;;;;;;3.10;2.00;;;14.50;99.90;;;;;;5051201;28;20049;-84
2023/05/25 06:43:31;;;;;;;3.92;2.33;;;14.50;99.90;;;;;;5036992;28;20048;-84
2023/05/25 06:45:58;;;;;;;2.55;1.52;;;14.60;99.90;;;;;;5035026;28;20084;-83
2023/05/25 06:48:25;;;;;;;5.40;2.15;;;14.70;99.90;;;;;;5021999;28;20049;-85
2023/05/25 06:50:52;;;;;;;3.67;1.75;;;14.70;99.90;;;;;;5046277;28;20098;-84
2023/05/25 06:53:19;;;;;;;2.97;1.85;;;14.80;99.90;;;;;;5028111;28;20048;-84
2023/05/25 06:55:46;;;;;;;3.20;1.88;;;14.90;99.90;;;;;;5029067;28;20061;-85
2023/05/25 06:58:13;;;;;;;2.80;1.85;;;15.00;99.90;;;;;;5034354;28;20324;-84
2023/05/25 07:00:40;;;;;;;3.38;1.80;;;15.00;99.90;;;;;;5030396;28;20140;-84
2023/05/25 07:03:07;;;;;;;3.70;1.58;;;15.00;99.90;;;;;;5042351;28;20049;-85
2023/05/25 07:05:34;;;;;;;4.32;1.33;;;15.10;99.90;;;;;;5039909;28;20510;-84
2023/05/25 07:08:01;;;;;;;3.50;1.38;;;15.10;99.90;;;;;;5038411;28;20045;-84
2023/05/25 07:10:28;;;;;;;2.75;1.30;;;15.10;99.90;;;;;;5064066;28;20056;-85
2023/05/25 07:12:55;;;;;;;3.15;1.73;;;15.10;99.90;;;;;;5031334;28;20083;-84
2023/05/25 07:15:23;;;;;;;2.80;1.30;;;15.00;99.90;;;;;;5052216;28;20496;-85
2023/05/25 07:17:50;;;;;;;2.28;1.40;;;15.10;99.90;;;;;;5044006;28;20523;-83
2023/05/25 07:20:17;;;;;;;5.00;1.65;;;15.30;99.90;;;;;;5045099;28;20044;-83
2023/05/25 07:22:46;;;;;;;1.80;1.13;;;15.40;99.90;;;;;;5040494;28;20132;-84
2023/05/25 07:25:13;;;;;;;2.30;1.40;;;15.50;99.90;;;;;;5027450;28;20269;-85
2023/05/25 07:27:41;;;;;;;3.58;1.40;;;15.60;99.90;;;;;;5010640;28;20048;-84
2023/05/25 07:30:09;;;;;;;2.28;1.67;;;15.60;99.90;;;;;;5040486;28;20055;-84
2023/05/25 07:32:37;;;;;;;1.60;1.10;;;15.80;99.90;;;;;;5025717;28;20053;-84
2023/05/25 07:35:04;;;;;;;1.55;1.02;;;15.90;99.90;;;;;;5053650;28;20056;-84
2023/05/25 07:37:32;;;;;;;2.85;1.52;;;16.00;99.90;;;;;;5024552;28;20049;-85
2023/05/25 07:39:59;;;;;;;2.97;1.65;;;16.00;99.90;;;;;;5037395;28;20404;-84
2023/05/25 07:42:32;;;;;;;3.42;1.42;;;16.10;99.90;;;;;;5024442;28;20064;-84
2023/05/25 07:45:00;;;;;;;2.22;1.33;;;16.20;99.90;;;;;;5010559;28;20102;-84
2023/05/25 07:47:27;;;;;;;2.35;1.67;;;16.30;99.90;;;;;;5006947;28;20615;-83
2023/05/25 07:49:54;;;;;;;4.32;1.50;;;16.30;99.90;;;;;;5024796;28;20063;-84
2023/05/25 07:52:21;;;;;;;2.13;1.52;;;16.40;99.90;;;;;;5029185;28;20060;-84
2023/05/25 07:54:48;;;;;;;2.80;1.50;;;16.40;99.90;;;;;;5063363;28;20094;-84
2023/05/25 07:57:17;;;;;;;2.05;1.40;;;16.60;99.90;;;;;;5029923;28;20057;-85
2023/05/25 07:59:45;;;;;;;2.95;1.77;;;16.80;99.90;;;;;;5064807;28;20052;-84
2023/05/25 08:02:11;;;;;;;3.95;1.80;;;16.90;99.90;;;;;;5061812;28;20369;-84
2023/05/25 08:04:38;;;;;;;2.78;1.60;;;17.10;99.90;;;;;;5046541;28;20076;-85
2023/05/25 08:07:06;;;;;;;3.17;1.63;;;17.20;99.90;;;;;;5046796;28;20055;-83
2023/05/25 08:09:33;;;;;;;2.65;1.70;;;17.20;99.90;;;;;;5027026;28;20059;-83
2023/05/25 08:12:00;;;;;;;2.35;1.50;;;17.30;99.90;;;;;;5046556;28;20053;-85
2023/05/25 08:14:47;;;;;;;2.58;1.73;;;17.40;99.90;;;;;;5038124;28;20094;-85
2023/05/25 08:17:14;;;;;;;4.72;1.92;;;17.40;99.90;;;;;;5036443;28;20057;-84
2023/05/25 08:19:41;;;;;;;2.58;1.48;;;17.40;99.90;;;;;;5032926;28;20060;-84
2023/05/25 08:22:08;;;;;;;7.75;2.72;;;17.40;99.90;;;;;;5025500;28;20068;-83
2023/05/25 08:24:35;;;;;;;3.75;2.03;;;17.20;99.90;;;;;;5032365;28;20761;-86
2023/05/25 08:27:02;;;;;;;3.47;1.80;;;16.90;99.90;;;;;;5046424;28;20052;-84
2023/05/25 08:29:30;;;;;;;4.80;1.80;;;16.70;99.90;;;;;;5036810;28;20049;-83
2023/05/25 08:31:56;;;;;;;3.72;2.17;;;16.70;99.90;;;;;;5019098;28;20056;-83
2023/05/25 08:34:23;;;;;;;6.50;2.33;;;16.70;99.90;;;;;;5054799;28;20049;-84
2023/05/25 08:36:51;;;;;;;4.70;2.47;;;16.70;99.90;;;;;;5036692;28;20179;-81
2023/05/25 08:39:18;;;;;;;6.22;3.17;;;16.70;99.90;;;;;;5063315;28;20044;-82
2023/05/25 08:41:45;;;;;;;5.18;2.10;;;16.60;99.90;;;;;;5077011;28;20545;-81
2023/05/25 08:44:14;;;;;;;4.13;2.08;;;16.60;99.90;;;;;;5068202;28;20904;-81
2023/05/25 08:46:41;;;;;;;3.97;1.90;;;16.60;99.90;;;;;;5071196;28;20048;-83
2023/05/25 08:49:12;;;;;;;5.82;2.35;;;16.60;99.90;;;;;;5026719;28;20515;-82
2023/05/25 08:51:48;;;;;;;2.80;1.52;;;16.80;99.90;;;;;;5028503;28;20061;-82
2023/05/25 08:54:17;;;;;;;3.30;2.15;;;16.90;99.90;;;;;;5029281;28;20049;-82
2023/05/25 08:57:10;;;;;;;3.80;1.70;;;16.80;99.90;;;;;;5030631;28;20061;-82
2023/05/25 08:59:41;;;;;;;2.97;1.52;;;16.80;99.90;;;;;;5045629;28;20049;-82
2023/05/25 09:02:19;;;;;;;3.10;1.40;;;16.80;99.90;;;;;;5045010;28;20049;-82
2023/05/25 09:04:46;;;;;;;4.13;1.83;;;17.00;99.90;;;;;;5028600;28;20504;-82
2023/05/25 09:07:13;;;;;;;4.05;2.42;;;17.10;99.90;;;;;;5048240;28;20697;-81
2023/05/25 09:09:41;;;;;;;3.97;1.88;;;17.20;99.90;;;;;;5041582;28;20048;-81
2023/05/25 09:12:09;;;;;;;5.68;2.10;;;17.30;99.90;;;;;;5064651;28;20141;-82
2023/05/25 09:14:36;;;;;;;3.63;2.08;;;17.20;99.90;;;;;;5034731;28;20111;-81
2023/05/25 09:17:03;;;;;;;3.75;1.77;;;17.20;99.90;;;;;;5043529;28;20057;-82
2023/05/25 09:19:30;;;;;;;4.13;2.08;;;17.30;99.90;;;;;;5035463;28;20373;-82
2023/05/25 09:21:59;;;;;;;4.32;2.17;;;17.60;99.90;;;;;;5046026;28;20045;-82
2023/05/25 09:24:40;;;;;;;2.90;1.92;;;18.00;99.90;;;;;;5042450;28;20158;-81
2023/05/25 09:27:10;;;;;;;3.38;1.88;;;18.10;99.90;;;;;;5025287;28;20504;-84
2023/05/25 09:29:37;;;;;;;3.20;1.35;;;18.20;99.90;;;;;;5027314;28;20114;-81
2023/05/25 09:32:06;;;;;;;2.97;1.88;;;18.30;99.90;;;;;;5042404;28;20056;-82
2023/05/25 09:34:34;;;;;;;3.60;2.10;;;18.50;99.90;;;;;;5047521;28;20050;-81
2023/05/25 09:37:13;;;;;;;5.55;1.90;;;18.70;99.50;;;;;;5064725;28;20056;-82
2023/05/25 09:39:41;;;;;;;4.38;2.00;;;18.80;99.80;;;;;;5048971;28;20055;-81
2023/05/25 09:42:09;;;;;;;2.13;1.40;;;18.80;99.50;;;;;;5030434;28;20502;-81
2023/05/25 09:44:36;;;;;;;2.97;1.63;;;18.70;99.80;;;;;;5047729;28;20064;-81
2023/05/25 09:47:04;;;;;;;3.08;1.75;;;18.70;99.90;;;;;;5029598;28;20048;-81
2023/05/25 09:49:30;;;;;;;3.92;2.08;;;18.70;99.90;;;;;;5027768;28;20068;-80
2023/05/25 09:51:57;;;;;;;3.90;1.90;;;18.70;99.90;;;;;;5030099;28;20080;-81
2023/05/25 09:54:25;;;;;;;3.30;1.90;;;18.80;99.90;;;;;;5063875;28;20128;-82
2023/05/25 09:56:52;;;;;;;5.35;1.73;;;18.80;99.70;;;;;;5030998;28;20098;-81
2023/05/25 09:59:21;;;;;;;2.95;1.60;;;18.60;99.90;;;;;;5027278;28;20552;-82
2023/05/25 10:01:52;;;;;;;2.63;1.63;;;18.40;99.90;;;;;;5010270;28;20195;-82
2023/05/25 10:04:39;;;;;;;2.97;1.38;;;18.40;99.90;;;;;;5030104;28;20133;-81
2023/05/25 10:07:07;;;;;;;2.85;1.52;;;18.40;99.90;;;;;;5041005;28;20072;-81
2023/05/25 10:09:41;;;;;;;3.55;1.50;;;18.30;99.90;;;;;;5043873;28;20152;-82
2023/05/25 10:12:08;;;;;;;3.63;2.03;;;18.10;99.90;;;;;;5043437;28;20057;-81
2023/05/25 10:14:35;;;;;;;2.17;1.70;;;18.10;99.90;;;;;;5027417;28;20440;-82
2023/05/25 10:17:04;;;;;;;3.85;1.83;;;18.20;99.90;;;;;;5024786;28;20130;-81
2023/05/25 10:19:40;;;;;;;2.60;1.45;;;18.30;99.90;;;;;;5053690;28;20044;-81
2023/05/25 10:22:21;;;;;;;4.63;1.60;;;18.40;99.90;;;;;;5047526;28;20057;-82
2023/05/25 10:24:48;;;;;;;4.47;1.85;;;18.50;99.90;;;;;;5044137;28;20620;-82
2023/05/25 10:27:20;;;;;;;3.50;2.00;;;18.70;99.90;;;;;;5059614;28;20059;-82
2023/05/25 10:29:55;;;;;;;5.28;1.80;;;18.70;99.90;;;;;;5027531;28;20399;-82
2023/05/25 10:32:21;;;;;;;3.65;1.95;;;18.70;99.90;;;;;;5026311;28;20052;-82
2023/05/25 10:34:50;;;;;;;3.05;1.90;;;18.80;99.90;;;;;;5026900;28;20077;-83
2023/05/25 10:37:17;;;;;;;3.65;1.90;;;18.90;99.90;;;;;;5042002;28;20080;-82
2023/05/25 10:39:44;;;;;;;2.25;1.40;;;18.90;99.90;;;;;;5054984;28;20063;-83
2023/05/25 10:42:11;;;;;;;2.03;1.52;;;18.90;99.90;;;;;;5030232;28;20134;-83
2023/05/25 10:44:42;;;;;;;5.05;1.80;;;19.00;99.90;;;;;;5023947;28;20072;-82
2023/05/25 10:47:09;;;;;;;3.05;1.60;;;19.10;99.60;;;;;;5037722;28;20052;-83
2023/05/25 10:49:51;;;;;;;2.10;1.40;;;19.20;99.80;;;;;;5054104;28;20048;-82
2023/05/25 10:52:21;;;;;;;3.28;1.35;;;19.30;99.60;;;;;;5029012;28;20064;-82
2023/05/25 10:54:48;;;;;;;3.75;1.80;;;19.40;99.60;;;;;;5047066;28;20044;-83
2023/05/25 10:57:20;;;;;;;5.90;2.45;;;19.30;99.00;;;;;;5045616;28;20063;-83
2023/05/25 10:59:50;;;;;;;2.75;1.80;;;19.40;99.20;;;;;;5026671;28;20079;-83
2023/05/25 11:02:23;;;;;;;3.20;1.80;;;19.40;99.40;;;;;;5038705;28;20126;-82
2023/05/25 11:04:50;;;;;;;;;;;19.50;99.20;;;;;;5043950;28;20562;-83
2023/05/25 11:07:18;;;;;;;3.35;1.70;;;19.60;99.40;;;;;;5057003;28;19928;-84
2023/05/25 11:09:57;;;;;;;2.75;1.83;;;19.40;99.20;;;;;;5034117;28;20051;-84
2023/05/25 11:12:24;;;;;;;3.10;1.48;;;19.30;99.40;;;;;;5052853;28;20170;-83
2023/05/25 11:15:11;;;;;;;2.80;1.42;;;19.40;99.70;;;;;;5029664;28;20535;-83
2023/05/25 11:17:45;;;;;;;8.00;2.70;;;19.60;99.00;;;;;;5033939;28;20097;-83
2023/05/25 11:20:31;;;;;;;4.95;2.05;;;19.50;99.30;;;;;;5014318;28;20040;-83
2023/05/25 11:22:58;;;;;;;4.18;2.13;;;19.40;99.50;;;;;;5019810;28;20053;-83
2023/05/25 11:25:37;;;;;;;3.33;1.88;;;19.60;99.40;;;;;;5055866;28;20052;-82
2023/05/25 11:28:05;;;;;;;3.35;2.08;;;19.80;99.10;;;;;;5037282;28;20131;-82
2023/05/25 11:30:32;;;;;;;4.20;2.58;;;19.90;98.70;;;;;;5018663;28;20053;-83
2023/05/25 11:33:03;;;;;;;3.92;2.13;;;19.80;98.70;;;;;;5020685;28;20056;-82
2023/05/25 11:35:32;;;;;;;2.83;1.88;;;19.80;98.90;;;;;;5032497;28;20064;-83
2023/05/25 11:38:00;;;;;;;3.50;2.03;;;19.60;98.40;;;;;;5019120;28;20053;-83
2023/05/25 11:40:30;;;;;;;2.45;1.73;;;19.50;98.50;;;;;;5030394;28;20123;-82
2023/05/25 11:42:59;;;;;;;3.33;1.70;;;19.50;98.30;;;;;;5034026;28;20604;-83
2023/05/25 11:45:32;;;;;;;2.53;1.50;;;19.70;98.50;;;;;;5012117;28;20045;-83
2023/05/25 11:47:59;;;;;;;3.95;2.17;;;19.90;98.60;;;;;;5017194;28;20056;-82
2023/05/25 11:50:27;;;;;;;2.97;2.00;;;20.10;97.40;;;;;;5019653;28;20053;-82
2023/05/25 11:52:54;;;;;;;4.40;2.72;;;20.10;97.20;;;;;;5042309;28;20503;-82
2023/05/25 11:55:21;;;;;;;4.65;2.28;;;20.40;97.40;;;;;;5038210;28;20249;-83
2023/05/25 11:57:54;;;;;;;3.35;1.73;;;20.20;97.40;;;;;;5019060;28;20052;-84
2023/05/25 12:00:26;;;;;;;4.25;2.20;;;20.20;97.40;;;;;;5052234;28;20052;-83
2023/05/25 12:02:53;;;;;;;4.75;2.10;;;20.00;97.80;;;;;;5016283;28;20126;-83
2023/05/25 12:05:21;;;;;;;3.60;1.80;;;19.90;97.90;;;;;;5013051;28;20049;-83
2023/05/25 12:07:49;;;;;;;2.83;1.60;;;19.80;97.90;;;;;;5017533;28;20136;-83
2023/05/25 12:10:16;;;;;;;3.67;1.92;;;19.70;98.20;;;;;;5036573;28;20058;-83
2023/05/25 12:12:56;;;;;;;4.10;1.88;;;19.50;98.80;;;;;;5008804;28;20056;-81
2023/05/25 12:15:24;;;;;;;4.25;1.92;;;19.50;99.30;;;;;;5018510;28;20060;-76
2023/05/25 12:17:52;;;;;;;3.97;2.38;;;19.60;99.60;;;;;;5038262;28;20120;-75
2023/05/25 12:20:19;;;;;;;4.30;2.67;;;19.60;99.80;;;;;;5011550;28;20100;-75
2023/05/25 12:22:46;;;;;;;5.00;2.70;;;19.80;99.50;;;;;;5017696;28;20102;-75
2023/05/25 12:25:14;;;;;;;5.07;2.95;;;19.80;99.60;;;;;;5048144;28;20574;-75
2023/05/25 12:27:41;;;;;;;4.05;2.10;;;19.90;99.40;;;;;;5038372;28;20053;-75
2023/05/25 12:30:09;;;;;;;4.15;2.20;;;20.20;99.90;;;;;;5047683;28;20056;-75
2023/05/25 12:32:59;;;;;;;4.93;2.50;;;20.40;99.10;;;;;;5038439;28;20354;-75
2023/05/25 12:35:30;;;;;;;3.22;2.05;;;20.10;99.30;;;;;;5017109;28;20487;-76
2023/05/25 12:38:10;;;;;;;4.07;2.20;;;20.30;99.10;;;;;;5019700;28;20142;-75
2023/05/25 12:40:37;;;;;;;3.67;2.45;;;20.10;99.60;;;;;;5045300;28;20567;-76
2023/05/25 12:43:03;;;;;;;3.78;2.33;;;19.90;99.40;;;;;;5013831;28;20085;-75
2023/05/25 12:45:30;;;;;;;3.60;2.45;;;19.70;99.70;;;;;;5030425;28;20053;-76
2023/05/25 12:47:57;;;;;;;3.25;2.40;;;19.80;99.90;;;;;;5031747;28;20712;-76
2023/05/25 12:50:26;;;;;;;4.43;2.58;;;19.90;99.90;;;;;;5038890;28;20184;-76
2023/05/25 12:53:00;;;;;;;4.32;2.60;;;20.00;99.90;;;;;;5046283;28;20763;-77
2023/05/25 12:55:28;;;;;;;3.05;2.20;;;20.20;99.70;;;;;;5041202;28;20132;-76